sensor_id;sensor_type;location;lat;lon;timestamp;P1;durP1;ratioP1;P2;durP2;ratioP2
8060;SDS011;4073;42.626;25.386;2023-12-04T00:01:46;2.43;;;2.10;;
8060;SDS011;4073;42.626;25.386;2023-12-04T00:04:13;2.57;;;2.30;;
8060;SDS011;4073;42.626;25.386;2023-12-04T00:06:38;3.83;;;2.40;;
8060;SDS011;4073;42.626;25.386;2023-12-04T00:09:05;3.77;;;2.77;;
8060;SDS011;4073;42.626;25.386;2023-12-04T00:11:31;2.73;;;2.20;;
8060;SDS011;4073;42.626;25.386;2023-12-04T00:13:57;3.70;;;2.00;;
8060;SDS011;4073;42.626;25.386;2023-12-04T00:16:23;2.40;;;2.20;;
8060;SDS011;4073;42.626;25.386;2023-12-04T00:18:48;2.23;;;2.10;;
8060;SDS011;4073;42.626;25.386;2023-12-04T00:21:14;3.30;;;2.07;;
8060;SDS011;4073;42.626;25.386;2023-12-04T00:23:39;2.50;;;2.00;;
8060;SDS011;4073;42.626;25.386;2023-12-04T00:26:05;2.53;;;1.70;;
8060;SDS011;4073;42.626;25.386;2023-12-04T00:28:31;3.57;;;1.80;;
8060;SDS011;4073;42.626;25.386;2023-12-04T00:30:56;1.93;;;1.67;;
8060;SDS011;4073;42.626;25.386;2023-12-04T00:33:22;2.00;;;1.90;;
8060;SDS011;4073;42.626;25.386;2023-12-04T00:35:48;3.73;;;2.00;;
8060;SDS011;4073;42.626;25.386;2023-12-04T00:38:13;2.23;;;2.00;;
8060;SDS011;4073;42.626;25.386;2023-12-04T00:40:39;5.13;;;1.90;;
8060;SDS011;4073;42.626;25.386;2023-12-04T00:43:04;3.40;;;2.30;;
8060;SDS011;4073;42.626;25.386;2023-12-04T00:45:30;2.43;;;2.23;;
8060;SDS011;4073;42.626;25.386;2023-12-04T00:47:55;3.80;;;2.43;;
8060;SDS011;4073;42.626;25.386;2023-12-04T00:50:20;2.57;;;2.23;;
8060;SDS011;4073;42.626;25.386;2023-12-04T00:52:46;3.10;;;2.30;;
8060;SDS011;4073;42.626;25.386;2023-12-04T00:55:12;5.13;;;3.50;;
8060;SDS011;4073;42.626;25.386;2023-12-04T00:57:37;3.57;;;2.70;;
8060;SDS011;4073;42.626;25.386;2023-12-04T01:00:03;3.13;;;2.33;;
8060;SDS011;4073;42.626;25.386;2023-12-04T01:02:29;2.73;;;2.50;;
8060;SDS011;4073;42.626;25.386;2023-12-04T01:04:55;3.30;;;2.70;;
8060;SDS011;4073;42.626;25.386;2023-12-04T01:07:20;3.00;;;2.80;;
8060;SDS011;4073;42.626;25.386;2023-12-04T01:09:46;3.10;;;2.80;;
8060;SDS011;4073;42.626;25.386;2023-12-04T01:12:11;2.97;;;2.30;;
8060;SDS011;4073;42.626;25.386;2023-12-04T01:14:37;2.67;;;2.47;;
8060;SDS011;4073;42.626;25.386;2023-12-04T01:17:05;2.73;;;2.53;;
8060;SDS011;4073;42.626;25.386;2023-12-04T01:19:31;3.37;;;2.97;;
8060;SDS011;4073;42.626;25.386;2023-12-04T01:21:57;3.60;;;3.17;;
8060;SDS011;4073;42.626;25.386;2023-12-04T01:24:22;4.77;;;3.07;;
8060;SDS011;4073;42.626;25.386;2023-12-04T01:27:06;3.10;;;2.67;;
8060;SDS011;4073;42.626;25.386;2023-12-04T01:29:32;3.20;;;2.90;;
8060;SDS011;4073;42.626;25.386;2023-12-04T01:31:57;4.80;;;3.40;;
8060;SDS011;4073;42.626;25.386;2023-12-04T01:34:23;3.43;;;3.13;;
8060;SDS011;4073;42.626;25.386;2023-12-04T01:36:48;4.70;;;3.50;;
8060;SDS011;4073;42.626;25.386;2023-12-04T01:39:14;3.33;;;2.70;;
8060;SDS011;4073;42.626;25.386;2023-12-04T01:41:39;3.60;;;3.30;;
8060;SDS011;4073;42.626;25.386;2023-12-04T01:44:05;4.60;;;4.03;;
8060;SDS011;4073;42.626;25.386;2023-12-04T01:46:31;4.30;;;2.93;;
8060;SDS011;4073;42.626;25.386;2023-12-04T01:48:56;3.90;;;3.23;;
8060;SDS011;4073;42.626;25.386;2023-12-04T01:51:23;3.67;;;3.07;;
8060;SDS011;4073;42.626;25.386;2023-12-04T01:53:51;5.60;;;3.30;;
8060;SDS011;4073;42.626;25.386;2023-12-04T01:56:16;4.70;;;3.67;;
8060;SDS011;4073;42.626;25.386;2023-12-04T01:58:42;4.20;;;3.57;;
8060;SDS011;4073;42.626;25.386;2023-12-04T02:01:08;5.40;;;3.93;;
8060;SDS011;4073;42.626;25.386;2023-12-04T02:03:35;5.83;;;3.67;;
8060;SDS011;4073;42.626;25.386;2023-12-04T02:06:01;4.17;;;3.67;;
8060;SDS011;4073;42.626;25.386;2023-12-04T02:08:28;5.90;;;3.43;;
8060;SDS011;4073;42.626;25.386;2023-12-04T02:10:55;7.37;;;3.23;;
8060;SDS011;4073;42.626;25.386;2023-12-04T02:13:21;4.37;;;3.83;;
8060;SDS011;4073;42.626;25.386;2023-12-04T02:15:46;6.07;;;3.90;;
8060;SDS011;4073;42.626;25.386;2023-12-04T02:18:17;4.73;;;4.20;;
8060;SDS011;4073;42.626;25.386;2023-12-04T02:20:43;4.23;;;3.53;;
8060;SDS011;4073;42.626;25.386;2023-12-04T02:23:08;5.63;;;4.03;;
8060;SDS011;4073;42.626;25.386;2023-12-04T02:25:34;5.60;;;4.43;;
8060;SDS011;4073;42.626;25.386;2023-12-04T02:28:01;4.60;;;3.87;;
8060;SDS011;4073;42.626;25.386;2023-12-04T02:30:30;7.40;;;5.00;;
8060;SDS011;4073;42.626;25.386;2023-12-04T02:32:56;5.90;;;4.20;;
8060;SDS011;4073;42.626;25.386;2023-12-04T02:35:24;5.63;;;3.57;;
8060;SDS011;4073;42.626;25.386;2023-12-04T02:37:53;3.67;;;3.23;;
8060;SDS011;4073;42.626;25.386;2023-12-04T02:40:19;3.90;;;3.50;;
8060;SDS011;4073;42.626;25.386;2023-12-04T02:42:45;5.87;;;5.10;;
8060;SDS011;4073;42.626;25.386;2023-12-04T02:45:10;4.37;;;3.80;;
8060;SDS011;4073;42.626;25.386;2023-12-04T02:47:36;5.03;;;4.03;;
8060;SDS011;4073;42.626;25.386;2023-12-04T02:50:02;4.23;;;3.83;;
8060;SDS011;4073;42.626;25.386;2023-12-04T02:52:28;4.50;;;4.10;;
8060;SDS011;4073;42.626;25.386;2023-12-04T02:54:53;4.53;;;3.90;;
8060;SDS011;4073;42.626;25.386;2023-12-04T02:57:19;4.57;;;4.10;;
8060;SDS011;4073;42.626;25.386;2023-12-04T02:59:45;5.90;;;4.33;;
8060;SDS011;4073;42.626;25.386;2023-12-04T03:02:10;4.67;;;4.17;;
8060;SDS011;4073;42.626;25.386;2023-12-04T03:04:36;5.10;;;4.00;;
8060;SDS011;4073;42.626;25.386;2023-12-04T03:07:01;7.23;;;5.20;;
8060;SDS011;4073;42.626;25.386;2023-12-04T03:09:27;5.63;;;4.73;;
8060;SDS011;4073;42.626;25.386;2023-12-04T03:11:52;5.50;;;4.30;;
8060;SDS011;4073;42.626;25.386;2023-12-04T03:14:18;5.83;;;4.47;;
8060;SDS011;4073;42.626;25.386;2023-12-04T03:16:44;6.03;;;4.83;;
8060;SDS011;4073;42.626;25.386;2023-12-04T03:19:10;6.83;;;5.33;;
8060;SDS011;4073;42.626;25.386;2023-12-04T03:21:35;8.20;;;5.53;;
8060;SDS011;4073;42.626;25.386;2023-12-04T03:24:01;8.37;;;6.20;;
8060;SDS011;4073;42.626;25.386;2023-12-04T03:26:26;10.10;;;6.70;;
8060;SDS011;4073;42.626;25.386;2023-12-04T03:28:53;7.00;;;6.17;;
8060;SDS011;4073;42.626;25.386;2023-12-04T03:31:18;9.63;;;6.70;;
8060;SDS011;4073;42.626;25.386;2023-12-04T03:33:44;8.03;;;5.80;;
8060;SDS011;4073;42.626;25.386;2023-12-04T03:36:09;7.57;;;5.53;;
8060;SDS011;4073;42.626;25.386;2023-12-04T03:38:35;5.83;;;5.17;;
8060;SDS011;4073;42.626;25.386;2023-12-04T03:41:00;7.37;;;6.00;;
8060;SDS011;4073;42.626;25.386;2023-12-04T03:43:26;7.73;;;5.63;;
8060;SDS011;4073;42.626;25.386;2023-12-04T03:45:51;6.30;;;5.67;;
8060;SDS011;4073;42.626;25.386;2023-12-04T03:48:17;7.40;;;5.80;;
8060;SDS011;4073;42.626;25.386;2023-12-04T03:50:42;8.40;;;6.63;;
8060;SDS011;4073;42.626;25.386;2023-12-04T03:53:08;10.27;;;6.97;;
8060;SDS011;4073;42.626;25.386;2023-12-04T03:55:33;7.77;;;6.53;;
8060;SDS011;4073;42.626;25.386;2023-12-04T03:57:59;8.37;;;6.40;;
8060;SDS011;4073;42.626;25.386;2023-12-04T04:00:25;8.20;;;6.43;;
8060;SDS011;4073;42.626;25.386;2023-12-04T04:02:50;8.27;;;6.70;;
8060;SDS011;4073;42.626;25.386;2023-12-04T04:05:16;8.07;;;6.77;;
8060;SDS011;4073;42.626;25.386;2023-12-04T04:07:41;7.40;;;6.37;;
8060;SDS011;4073;42.626;25.386;2023-12-04T04:10:07;7.47;;;6.53;;
8060;SDS011;4073;42.626;25.386;2023-12-04T04:12:33;6.90;;;6.23;;
8060;SDS011;4073;42.626;25.386;2023-12-04T04:14:59;9.40;;;6.57;;
8060;SDS011;4073;42.626;25.386;2023-12-04T04:17:25;8.20;;;6.50;;
8060;SDS011;4073;42.626;25.386;2023-12-04T04:19:51;12.60;;;11.23;;
8060;SDS011;4073;42.626;25.386;2023-12-04T04:22:18;11.50;;;10.33;;
8060;SDS011;4073;42.626;25.386;2023-12-04T04:24:44;8.60;;;6.83;;
8060;SDS011;4073;42.626;25.386;2023-12-04T04:27:09;8.40;;;7.03;;
8060;SDS011;4073;42.626;25.386;2023-12-04T04:29:35;7.17;;;6.47;;
8060;SDS011;4073;42.626;25.386;2023-12-04T04:32:00;8.93;;;6.60;;
8060;SDS011;4073;42.626;25.386;2023-12-04T04:34:26;8.37;;;7.47;;
8060;SDS011;4073;42.626;25.386;2023-12-04T04:36:51;8.10;;;7.13;;
8060;SDS011;4073;42.626;25.386;2023-12-04T04:39:17;8.10;;;7.30;;
8060;SDS011;4073;42.626;25.386;2023-12-04T04:41:42;8.60;;;7.37;;
8060;SDS011;4073;42.626;25.386;2023-12-04T04:44:09;7.87;;;6.70;;
8060;SDS011;4073;42.626;25.386;2023-12-04T04:46:34;8.53;;;7.27;;
8060;SDS011;4073;42.626;25.386;2023-12-04T04:49:00;10.60;;;9.13;;
8060;SDS011;4073;42.626;25.386;2023-12-04T04:51:27;13.53;;;10.70;;
8060;SDS011;4073;42.626;25.386;2023-12-04T04:53:53;11.47;;;9.60;;
8060;SDS011;4073;42.626;25.386;2023-12-04T04:56:18;9.27;;;8.03;;
8060;SDS011;4073;42.626;25.386;2023-12-04T04:58:44;10.90;;;8.20;;
8060;SDS011;4073;42.626;25.386;2023-12-04T05:01:09;11.80;;;10.43;;
8060;SDS011;4073;42.626;25.386;2023-12-04T05:03:35;9.30;;;8.40;;
8060;SDS011;4073;42.626;25.386;2023-12-04T05:06:00;10.73;;;9.00;;
8060;SDS011;4073;42.626;25.386;2023-12-04T05:08:26;10.03;;;8.93;;
8060;SDS011;4073;42.626;25.386;2023-12-04T05:10:51;10.33;;;9.20;;
8060;SDS011;4073;42.626;25.386;2023-12-04T05:13:17;8.83;;;7.80;;
8060;SDS011;4073;42.626;25.386;2023-12-04T05:15:43;9.10;;;7.93;;
8060;SDS011;4073;42.626;25.386;2023-12-04T05:18:08;11.47;;;8.50;;
8060;SDS011;4073;42.626;25.386;2023-12-04T05:20:34;11.97;;;10.57;;
8060;SDS011;4073;42.626;25.386;2023-12-04T05:22:59;13.40;;;10.67;;
8060;SDS011;4073;42.626;25.386;2023-12-04T05:25:25;10.93;;;9.33;;
8060;SDS011;4073;42.626;25.386;2023-12-04T05:27:50;12.73;;;10.17;;
8060;SDS011;4073;42.626;25.386;2023-12-04T05:30:16;10.57;;;8.30;;
8060;SDS011;4073;42.626;25.386;2023-12-04T05:32:41;8.47;;;7.27;;
8060;SDS011;4073;42.626;25.386;2023-12-04T05:35:07;10.40;;;8.03;;
8060;SDS011;4073;42.626;25.386;2023-12-04T05:37:32;11.80;;;8.80;;
8060;SDS011;4073;42.626;25.386;2023-12-04T05:39:58;14.63;;;10.53;;
8060;SDS011;4073;42.626;25.386;2023-12-04T05:42:23;10.53;;;8.67;;
8060;SDS011;4073;42.626;25.386;2023-12-04T05:44:49;9.33;;;7.43;;
8060;SDS011;4073;42.626;25.386;2023-12-04T05:47:14;7.90;;;6.63;;
8060;SDS011;4073;42.626;25.386;2023-12-04T05:49:40;9.37;;;7.37;;
8060;SDS011;4073;42.626;25.386;2023-12-04T05:52:06;9.90;;;7.83;;
8060;SDS011;4073;42.626;25.386;2023-12-04T05:54:31;10.53;;;8.67;;
8060;SDS011;4073;42.626;25.386;2023-12-04T05:56:57;13.73;;;9.53;;
8060;SDS011;4073;42.626;25.386;2023-12-04T05:59:23;9.17;;;7.57;;
8060;SDS011;4073;42.626;25.386;2023-12-04T06:01:48;11.03;;;7.83;;
8060;SDS011;4073;42.626;25.386;2023-12-04T06:04:14;12.27;;;8.70;;
8060;SDS011;4073;42.626;25.386;2023-12-04T06:06:39;9.90;;;7.57;;
8060;SDS011;4073;42.626;25.386;2023-12-04T06:09:05;7.30;;;6.27;;
8060;SDS011;4073;42.626;25.386;2023-12-04T06:11:31;9.73;;;7.10;;
8060;SDS011;4073;42.626;25.386;2023-12-04T06:13:56;10.57;;;7.57;;
8060;SDS011;4073;42.626;25.386;2023-12-04T06:16:22;9.73;;;7.47;;
8060;SDS011;4073;42.626;25.386;2023-12-04T06:18:47;12.93;;;9.60;;
8060;SDS011;4073;42.626;25.386;2023-12-04T06:21:13;10.47;;;7.40;;
8060;SDS011;4073;42.626;25.386;2023-12-04T06:23:39;11.93;;;7.13;;
8060;SDS011;4073;42.626;25.386;2023-12-04T06:26:05;11.23;;;7.87;;
8060;SDS011;4073;42.626;25.386;2023-12-04T06:28:31;7.80;;;6.97;;
8060;SDS011;4073;42.626;25.386;2023-12-04T06:30:57;9.70;;;6.90;;
8060;SDS011;4073;42.626;25.386;2023-12-04T06:33:23;7.80;;;6.23;;
8060;SDS011;4073;42.626;25.386;2023-12-04T06:35:49;9.77;;;7.67;;
8060;SDS011;4073;42.626;25.386;2023-12-04T06:38:15;8.80;;;7.40;;
8060;SDS011;4073;42.626;25.386;2023-12-04T06:40:42;8.73;;;7.43;;
8060;SDS011;4073;42.626;25.386;2023-12-04T06:43:07;8.97;;;7.17;;
8060;SDS011;4073;42.626;25.386;2023-12-04T06:45:33;8.70;;;7.00;;
8060;SDS011;4073;42.626;25.386;2023-12-04T06:47:59;8.07;;;7.10;;
8060;SDS011;4073;42.626;25.386;2023-12-04T06:50:25;8.47;;;7.53;;
8060;SDS011;4073;42.626;25.386;2023-12-04T06:52:51;7.93;;;6.47;;
8060;SDS011;4073;42.626;25.386;2023-12-04T06:55:17;14.67;;;9.47;;
8060;SDS011;4073;42.626;25.386;2023-12-04T06:57:42;13.73;;;9.73;;
8060;SDS011;4073;42.626;25.386;2023-12-04T07:00:08;16.33;;;10.03;;
8060;SDS011;4073;42.626;25.386;2023-12-04T07:02:37;12.20;;;8.40;;
8060;SDS011;4073;42.626;25.386;2023-12-04T07:05:03;9.43;;;7.50;;
8060;SDS011;4073;42.626;25.386;2023-12-04T07:07:29;13.33;;;9.40;;
8060;SDS011;4073;42.626;25.386;2023-12-04T07:09:54;10.03;;;6.60;;
8060;SDS011;4073;42.626;25.386;2023-12-04T07:12:20;10.97;;;8.50;;
8060;SDS011;4073;42.626;25.386;2023-12-04T07:14:46;9.00;;;6.47;;
8060;SDS011;4073;42.626;25.386;2023-12-04T07:17:12;7.10;;;5.43;;
8060;SDS011;4073;42.626;25.386;2023-12-04T07:19:37;6.93;;;4.87;;
8060;SDS011;4073;42.626;25.386;2023-12-04T07:22:03;6.90;;;5.50;;
8060;SDS011;4073;42.626;25.386;2023-12-04T07:24:29;7.50;;;6.17;;
8060;SDS011;4073;42.626;25.386;2023-12-04T07:26:54;9.03;;;7.47;;
8060;SDS011;4073;42.626;25.386;2023-12-04T07:29:20;5.60;;;5.07;;
8060;SDS011;4073;42.626;25.386;2023-12-04T07:31:45;8.50;;;6.87;;
8060;SDS011;4073;42.626;25.386;2023-12-04T07:34:11;8.77;;;6.93;;
8060;SDS011;4073;42.626;25.386;2023-12-04T07:36:36;6.57;;;5.53;;
8060;SDS011;4073;42.626;25.386;2023-12-04T07:39:02;8.93;;;6.43;;
8060;SDS011;4073;42.626;25.386;2023-12-04T07:41:28;9.20;;;7.33;;
8060;SDS011;4073;42.626;25.386;2023-12-04T07:43:54;10.77;;;6.50;;
8060;SDS011;4073;42.626;25.386;2023-12-04T07:46:19;8.37;;;6.03;;
8060;SDS011;4073;42.626;25.386;2023-12-04T07:48:45;7.13;;;5.80;;
8060;SDS011;4073;42.626;25.386;2023-12-04T07:51:11;6.47;;;4.73;;
8060;SDS011;4073;42.626;25.386;2023-12-04T07:53:36;7.70;;;6.33;;
8060;SDS011;4073;42.626;25.386;2023-12-04T07:56:02;7.53;;;5.73;;
8060;SDS011;4073;42.626;25.386;2023-12-04T07:58:31;9.30;;;6.30;;
8060;SDS011;4073;42.626;25.386;2023-12-04T08:00:57;8.40;;;5.87;;
8060;SDS011;4073;42.626;25.386;2023-12-04T08:03:23;8.30;;;6.10;;
8060;SDS011;4073;42.626;25.386;2023-12-04T08:05:51;8.83;;;7.10;;
8060;SDS011;4073;42.626;25.386;2023-12-04T08:08:17;6.20;;;5.50;;
8060;SDS011;4073;42.626;25.386;2023-12-04T08:10:42;7.47;;;6.37;;
8060;SDS011;4073;42.626;25.386;2023-12-04T08:13:08;8.10;;;7.30;;
8060;SDS011;4073;42.626;25.386;2023-12-04T08:15:33;10.10;;;7.87;;
8060;SDS011;4073;42.626;25.386;2023-12-04T08:17:59;8.27;;;6.97;;
8060;SDS011;4073;42.626;25.386;2023-12-04T08:20:25;8.17;;;6.70;;
8060;SDS011;4073;42.626;25.386;2023-12-04T08:22:51;10.47;;;6.90;;
8060;SDS011;4073;42.626;25.386;2023-12-04T08:25:16;8.17;;;6.50;;
8060;SDS011;4073;42.626;25.386;2023-12-04T08:27:42;9.37;;;6.37;;
8060;SDS011;4073;42.626;25.386;2023-12-04T08:30:08;6.90;;;5.93;;
8060;SDS011;4073;42.626;25.386;2023-12-04T08:32:33;9.60;;;6.83;;
8060;SDS011;4073;42.626;25.386;2023-12-04T08:34:59;7.53;;;6.03;;
8060;SDS011;4073;42.626;25.386;2023-12-04T08:37:25;8.67;;;7.27;;
8060;SDS011;4073;42.626;25.386;2023-12-04T08:39:50;7.07;;;5.13;;
8060;SDS011;4073;42.626;25.386;2023-12-04T08:42:16;8.83;;;7.23;;
8060;SDS011;4073;42.626;25.386;2023-12-04T08:44:41;8.20;;;5.97;;
8060;SDS011;4073;42.626;25.386;2023-12-04T08:47:08;7.83;;;6.50;;
8060;SDS011;4073;42.626;25.386;2023-12-04T08:49:33;7.40;;;6.47;;
8060;SDS011;4073;42.626;25.386;2023-12-04T08:51:59;11.03;;;7.73;;
8060;SDS011;4073;42.626;25.386;2023-12-04T08:54:24;10.27;;;8.33;;
8060;SDS011;4073;42.626;25.386;2023-12-04T08:56:50;10.37;;;7.70;;
8060;SDS011;4073;42.626;25.386;2023-12-04T08:59:16;7.83;;;7.03;;
8060;SDS011;4073;42.626;25.386;2023-12-04T09:01:42;7.93;;;6.93;;
8060;SDS011;4073;42.626;25.386;2023-12-04T09:04:08;9.83;;;7.57;;
8060;SDS011;4073;42.626;25.386;2023-12-04T09:06:35;8.60;;;7.20;;
8060;SDS011;4073;42.626;25.386;2023-12-04T09:09:00;7.77;;;6.87;;
8060;SDS011;4073;42.626;25.386;2023-12-04T09:11:27;7.70;;;6.20;;
8060;SDS011;4073;42.626;25.386;2023-12-04T09:13:53;11.10;;;7.33;;
8060;SDS011;4073;42.626;25.386;2023-12-04T09:16:19;8.97;;;6.27;;
8060;SDS011;4073;42.626;25.386;2023-12-04T09:18:44;9.23;;;6.67;;
8060;SDS011;4073;42.626;25.386;2023-12-04T09:21:10;8.90;;;7.00;;
8060;SDS011;4073;42.626;25.386;2023-12-04T09:23:35;7.50;;;6.57;;
8060;SDS011;4073;42.626;25.386;2023-12-04T09:26:01;7.70;;;6.20;;
8060;SDS011;4073;42.626;25.386;2023-12-04T09:28:26;7.40;;;6.40;;
8060;SDS011;4073;42.626;25.386;2023-12-04T09:30:52;9.07;;;7.13;;
8060;SDS011;4073;42.626;25.386;2023-12-04T09:33:18;8.20;;;6.40;;
8060;SDS011;4073;42.626;25.386;2023-12-04T09:35:43;7.23;;;6.03;;
8060;SDS011;4073;42.626;25.386;2023-12-04T09:38:09;12.37;;;7.87;;
8060;SDS011;4073;42.626;25.386;2023-12-04T09:40:35;14.57;;;8.77;;
8060;SDS011;4073;42.626;25.386;2023-12-04T09:43:01;11.90;;;8.27;;
8060;SDS011;4073;42.626;25.386;2023-12-04T09:45:27;13.00;;;8.00;;
8060;SDS011;4073;42.626;25.386;2023-12-04T09:47:54;11.27;;;8.10;;
8060;SDS011;4073;42.626;25.386;2023-12-04T09:50:20;11.63;;;8.80;;
8060;SDS011;4073;42.626;25.386;2023-12-04T09:52:50;10.23;;;8.27;;
8060;SDS011;4073;42.626;25.386;2023-12-04T09:55:17;10.60;;;8.60;;
8060;SDS011;4073;42.626;25.386;2023-12-04T09:57:43;9.33;;;7.77;;
8060;SDS011;4073;42.626;25.386;2023-12-04T10:00:14;7.77;;;6.63;;
8060;SDS011;4073;42.626;25.386;2023-12-04T10:02:40;12.57;;;7.97;;
8060;SDS011;4073;42.626;25.386;2023-12-04T10:05:08;8.53;;;7.63;;
8060;SDS011;4073;42.626;25.386;2023-12-04T10:07:34;10.37;;;7.50;;
8060;SDS011;4073;42.626;25.386;2023-12-04T10:10:01;8.87;;;8.07;;
8060;SDS011;4073;42.626;25.386;2023-12-04T10:12:30;9.40;;;7.43;;
8060;SDS011;4073;42.626;25.386;2023-12-04T10:15:09;10.03;;;7.90;;
8060;SDS011;4073;42.626;25.386;2023-12-04T10:17:39;7.57;;;6.87;;
8060;SDS011;4073;42.626;25.386;2023-12-04T10:20:08;9.13;;;7.60;;
8060;SDS011;4073;42.626;25.386;2023-12-04T10:22:59;8.80;;;7.20;;
8060;SDS011;4073;42.626;25.386;2023-12-04T10:25:27;10.47;;;5.87;;
8060;SDS011;4073;42.626;25.386;2023-12-04T10:27:54;8.40;;;6.43;;
8060;SDS011;4073;42.626;25.386;2023-12-04T10:30:33;8.17;;;6.57;;
8060;SDS011;4073;42.626;25.386;2023-12-04T10:33:01;7.63;;;6.00;;
8060;SDS011;4073;42.626;25.386;2023-12-04T10:35:28;7.03;;;6.23;;
8060;SDS011;4073;42.626;25.386;2023-12-04T10:37:58;7.77;;;6.33;;
8060;SDS011;4073;42.626;25.386;2023-12-04T10:40:28;6.10;;;5.50;;
8060;SDS011;4073;42.626;25.386;2023-12-04T10:43:14;11.13;;;6.57;;
8060;SDS011;4073;42.626;25.386;2023-12-04T10:45:45;9.87;;;6.90;;
8060;SDS011;4073;42.626;25.386;2023-12-04T10:48:13;7.53;;;5.73;;
8060;SDS011;4073;42.626;25.386;2023-12-04T10:50:40;6.60;;;5.83;;
8060;SDS011;4073;42.626;25.386;2023-12-04T10:53:08;7.43;;;5.73;;
8060;SDS011;4073;42.626;25.386;2023-12-04T10:55:35;8.47;;;6.87;;
8060;SDS011;4073;42.626;25.386;2023-12-04T10:58:06;8.83;;;6.40;;
8060;SDS011;4073;42.626;25.386;2023-12-04T11:00:36;6.87;;;5.37;;
8060;SDS011;4073;42.626;25.386;2023-12-04T11:03:07;9.67;;;7.27;;
8060;SDS011;4073;42.626;25.386;2023-12-04T11:05:36;9.33;;;7.20;;
8060;SDS011;4073;42.626;25.386;2023-12-04T11:08:03;7.00;;;5.60;;
8060;SDS011;4073;42.626;25.386;2023-12-04T11:10:31;7.10;;;5.63;;
8060;SDS011;4073;42.626;25.386;2023-12-04T11:13:06;7.50;;;5.53;;
8060;SDS011;4073;42.626;25.386;2023-12-04T11:16:14;7.37;;;5.70;;
8060;SDS011;4073;42.626;25.386;2023-12-04T11:18:51;7.20;;;5.33;;
8060;SDS011;4073;42.626;25.386;2023-12-04T11:21:22;6.53;;;5.00;;
8060;SDS011;4073;42.626;25.386;2023-12-04T11:23:49;6.47;;;5.53;;
8060;SDS011;4073;42.626;25.386;2023-12-04T11:26:15;5.63;;;4.90;;
8060;SDS011;4073;42.626;25.386;2023-12-04T11:28:42;6.47;;;5.53;;
8060;SDS011;4073;42.626;25.386;2023-12-04T11:31:09;10.07;;;7.30;;
8060;SDS011;4073;42.626;25.386;2023-12-04T11:33:38;6.23;;;5.10;;
8060;SDS011;4073;42.626;25.386;2023-12-04T11:36:07;5.77;;;5.27;;
8060;SDS011;4073;42.626;25.386;2023-12-04T11:38:34;7.90;;;6.60;;
8060;SDS011;4073;42.626;25.386;2023-12-04T11:41:06;9.27;;;6.03;;
8060;SDS011;4073;42.626;25.386;2023-12-04T11:43:39;6.30;;;5.70;;
8060;SDS011;4073;42.626;25.386;2023-12-04T11:46:10;7.43;;;6.17;;
8060;SDS011;4073;42.626;25.386;2023-12-04T11:48:39;7.40;;;5.83;;
8060;SDS011;4073;42.626;25.386;2023-12-04T11:51:05;6.30;;;5.00;;
8060;SDS011;4073;42.626;25.386;2023-12-04T11:53:38;5.80;;;4.60;;
8060;SDS011;4073;42.626;25.386;2023-12-04T11:56:10;6.43;;;4.90;;
8060;SDS011;4073;42.626;25.386;2023-12-04T11:58:43;8.83;;;6.77;;
8060;SDS011;4073;42.626;25.386;2023-12-04T12:01:09;11.67;;;7.37;;
8060;SDS011;4073;42.626;25.386;2023-12-04T12:03:35;12.90;;;7.63;;
8060;SDS011;4073;42.626;25.386;2023-12-04T12:06:00;9.40;;;6.00;;
8060;SDS011;4073;42.626;25.386;2023-12-04T12:08:26;7.63;;;6.10;;
8060;SDS011;4073;42.626;25.386;2023-12-04T12:10:54;9.50;;;7.53;;
8060;SDS011;4073;42.626;25.386;2023-12-04T12:13:20;10.33;;;8.53;;
8060;SDS011;4073;42.626;25.386;2023-12-04T12:15:47;9.07;;;7.30;;
8060;SDS011;4073;42.626;25.386;2023-12-04T12:18:15;7.80;;;5.90;;
8060;SDS011;4073;42.626;25.386;2023-12-04T12:20:41;6.47;;;5.43;;
8060;SDS011;4073;42.626;25.386;2023-12-04T12:23:06;7.40;;;5.93;;
8060;SDS011;4073;42.626;25.386;2023-12-04T12:25:34;6.00;;;5.30;;
8060;SDS011;4073;42.626;25.386;2023-12-04T12:28:03;5.87;;;4.93;;
8060;SDS011;4073;42.626;25.386;2023-12-04T12:30:29;6.37;;;5.63;;
8060;SDS011;4073;42.626;25.386;2023-12-04T12:32:55;5.83;;;5.07;;
8060;SDS011;4073;42.626;25.386;2023-12-04T12:35:21;5.70;;;5.13;;
8060;SDS011;4073;42.626;25.386;2023-12-04T12:37:48;6.37;;;5.77;;
8060;SDS011;4073;42.626;25.386;2023-12-04T12:40:18;9.37;;;6.67;;
8060;SDS011;4073;42.626;25.386;2023-12-04T12:42:45;8.90;;;6.63;;
8060;SDS011;4073;42.626;25.386;2023-12-04T12:45:11;5.87;;;5.00;;
8060;SDS011;4073;42.626;25.386;2023-12-04T12:47:37;7.90;;;6.17;;
8060;SDS011;4073;42.626;25.386;2023-12-04T12:50:03;10.50;;;7.63;;
8060;SDS011;4073;42.626;25.386;2023-12-04T12:52:33;5.57;;;4.70;;
8060;SDS011;4073;42.626;25.386;2023-12-04T12:54:58;10.53;;;6.67;;
8060;SDS011;4073;42.626;25.386;2023-12-04T12:57:24;8.33;;;6.53;;
8060;SDS011;4073;42.626;25.386;2023-12-04T12:59:50;8.73;;;7.03;;
8060;SDS011;4073;42.626;25.386;2023-12-04T13:02:16;6.17;;;5.57;;
8060;SDS011;4073;42.626;25.386;2023-12-04T13:04:42;7.23;;;6.33;;
8060;SDS011;4073;42.626;25.386;2023-12-04T13:07:08;11.03;;;8.80;;
8060;SDS011;4073;42.626;25.386;2023-12-04T13:09:34;11.07;;;8.07;;
8060;SDS011;4073;42.626;25.386;2023-12-04T13:12:01;8.50;;;6.83;;
8060;SDS011;4073;42.626;25.386;2023-12-04T13:14:27;9.27;;;8.00;;
8060;SDS011;4073;42.626;25.386;2023-12-04T13:16:52;10.90;;;8.63;;
8060;SDS011;4073;42.626;25.386;2023-12-04T13:19:20;11.60;;;8.27;;
8060;SDS011;4073;42.626;25.386;2023-12-04T13:21:46;12.17;;;9.40;;
8060;SDS011;4073;42.626;25.386;2023-12-04T13:24:11;14.77;;;9.27;;
8060;SDS011;4073;42.626;25.386;2023-12-04T13:26:37;9.27;;;7.97;;
8060;SDS011;4073;42.626;25.386;2023-12-04T13:29:04;9.57;;;7.00;;
8060;SDS011;4073;42.626;25.386;2023-12-04T13:31:31;7.77;;;6.13;;
8060;SDS011;4073;42.626;25.386;2023-12-04T13:33:57;11.00;;;7.53;;
8060;SDS011;4073;42.626;25.386;2023-12-04T13:36:23;10.23;;;8.47;;
8060;SDS011;4073;42.626;25.386;2023-12-04T13:38:49;11.37;;;8.43;;
8060;SDS011;4073;42.626;25.386;2023-12-04T13:41:14;9.53;;;7.80;;
8060;SDS011;4073;42.626;25.386;2023-12-04T13:43:58;18.33;;;7.37;;
8060;SDS011;4073;42.626;25.386;2023-12-04T13:46:25;15.53;;;10.70;;
8060;SDS011;4073;42.626;25.386;2023-12-04T13:48:55;11.80;;;8.97;;
8060;SDS011;4073;42.626;25.386;2023-12-04T13:51:21;10.60;;;8.07;;
8060;SDS011;4073;42.626;25.386;2023-12-04T13:53:47;10.50;;;8.33;;
8060;SDS011;4073;42.626;25.386;2023-12-04T13:56:15;13.93;;;9.33;;
8060;SDS011;4073;42.626;25.386;2023-12-04T13:58:50;15.67;;;10.10;;
8060;SDS011;4073;42.626;25.386;2023-12-04T14:01:25;9.43;;;8.03;;
8060;SDS011;4073;42.626;25.386;2023-12-04T14:03:54;11.27;;;8.60;;
8060;SDS011;4073;42.626;25.386;2023-12-04T14:06:26;12.93;;;8.73;;
8060;SDS011;4073;42.626;25.386;2023-12-04T14:08:52;12.70;;;8.53;;
8060;SDS011;4073;42.626;25.386;2023-12-04T14:11:18;12.23;;;10.13;;
8060;SDS011;4073;42.626;25.386;2023-12-04T14:13:43;14.47;;;11.07;;
8060;SDS011;4073;42.626;25.386;2023-12-04T14:16:09;14.13;;;10.77;;
8060;SDS011;4073;42.626;25.386;2023-12-04T14:18:35;13.03;;;11.33;;
8060;SDS011;4073;42.626;25.386;2023-12-04T14:21:00;9.97;;;8.17;;
8060;SDS011;4073;42.626;25.386;2023-12-04T14:23:26;15.77;;;12.43;;
8060;SDS011;4073;42.626;25.386;2023-12-04T14:25:52;14.37;;;10.30;;
8060;SDS011;4073;42.626;25.386;2023-12-04T14:28:18;14.53;;;11.80;;
8060;SDS011;4073;42.626;25.386;2023-12-04T14:30:43;13.53;;;9.90;;
8060;SDS011;4073;42.626;25.386;2023-12-04T14:33:09;13.00;;;10.67;;
8060;SDS011;4073;42.626;25.386;2023-12-04T14:35:35;17.17;;;13.23;;
8060;SDS011;4073;42.626;25.386;2023-12-04T14:38:04;15.33;;;10.37;;
8060;SDS011;4073;42.626;25.386;2023-12-04T14:40:30;14.50;;;11.50;;
8060;SDS011;4073;42.626;25.386;2023-12-04T14:42:56;13.43;;;10.23;;
8060;SDS011;4073;42.626;25.386;2023-12-04T14:45:21;13.50;;;9.63;;
8060;SDS011;4073;42.626;25.386;2023-12-04T14:47:47;10.60;;;8.43;;
8060;SDS011;4073;42.626;25.386;2023-12-04T14:50:15;13.93;;;10.47;;
8060;SDS011;4073;42.626;25.386;2023-12-04T14:52:41;13.43;;;10.33;;
8060;SDS011;4073;42.626;25.386;2023-12-04T14:55:13;15.47;;;11.20;;